sensor_id;sensor_type;location;lat;lon;timestamp;temperature;humidity
29571;DHT22;16814;52.118;11.436;2023-09-19T00:01:06;18.30;99.90
29571;DHT22;16814;52.118;11.436;2023-09-19T00:03:37;18.20;99.90
29571;DHT22;16814;52.118;11.436;2023-09-19T00:06:04;18.20;99.90
29571;DHT22;16814;52.118;11.436;2023-09-19T00:08:30;18.10;99.90
29571;DHT22;16814;52.118;11.436;2023-09-19T00:10:58;18.10;99.90
29571;DHT22;16814;52.118;11.436;2023-09-19T00:13:31;18.10;99.90
29571;DHT22;16814;52.118;11.436;2023-09-19T00:15:57;18.00;99.90
29571;DHT22;16814;52.118;11.436;2023-09-19T00:18:24;18.00;99.90
29571;DHT22;16814;52.118;11.436;2023-09-19T00:20:57;18.00;99.90
29571;DHT22;16814;52.118;11.436;2023-09-19T00:23:22;18.00;99.90
29571;DHT22;16814;52.118;11.436;2023-09-19T00:25:50;18.00;99.90
29571;DHT22;16814;52.118;11.436;2023-09-19T00:28:16;18.00;99.90
29571;DHT22;16814;52.118;11.436;2023-09-19T00:30:43;18.00;99.90
29571;DHT22;16814;52.118;11.436;2023-09-19T00:33:08;18.00;99.90
29571;DHT22;16814;52.118;11.436;2023-09-19T00:35:36;18.00;99.90
29571;DHT22;16814;52.118;11.436;2023-09-19T00:38:02;18.00;99.90
29571;DHT22;16814;52.118;11.436;2023-09-19T00:40:29;17.90;99.90
29571;DHT22;16814;52.118;11.436;2023-09-19T00:42:58;17.90;99.90
29571;DHT22;16814;52.118;11.436;2023-09-19T00:45:25;17.90;99.90
29571;DHT22;16814;52.118;11.436;2023-09-19T00:47:54;17.90;99.90
29571;DHT22;16814;52.118;11.436;2023-09-19T00:50:23;17.80;99.90
29571;DHT22;16814;52.118;11.436;2023-09-19T00:52:53;17.80;99.90
29571;DHT22;16814;52.118;11.436;2023-09-19T00:55:19;17.70;99.90
29571;DHT22;16814;52.118;11.436;2023-09-19T00:57:45;17.70;99.90
29571;DHT22;16814;52.118;11.436;2023-09-19T01:00:11;17.90;99.90
29571;DHT22;16814;52.118;11.436;2023-09-19T01:02:41;17.60;99.90
29571;DHT22;16814;52.118;11.436;2023-09-19T01:05:09;17.60;99.90
29571;DHT22;16814;52.118;11.436;2023-09-19T01:07:36;17.60;99.90
29571;DHT22;16814;52.118;11.436;2023-09-19T01:10:06;17.60;99.90
29571;DHT22;16814;52.118;11.436;2023-09-19T01:18:29;17.50;99.90
29571;DHT22;16814;52.118;11.436;2023-09-19T01:24:17;17.50;99.90
29571;DHT22;16814;52.118;11.436;2023-09-19T01:29:49;17.40;99.90
29571;DHT22;16814;52.118;11.436;2023-09-19T01:32:19;17.40;99.90
29571;DHT22;16814;52.118;11.436;2023-09-19T01:34:57;17.40;99.90
29571;DHT22;16814;52.118;11.436;2023-09-19T01:37:25;17.40;99.90
29571;DHT22;16814;52.118;11.436;2023-09-19T01:40:00;17.30;99.90
29571;DHT22;16814;52.118;11.436;2023-09-19T01:42:54;17.30;99.90
29571;DHT22;16814;52.118;11.436;2023-09-19T01:45:51;17.20;99.90
29571;DHT22;16814;52.118;11.436;2023-09-19T01:48:40;17.20;99.90
29571;DHT22;16814;52.118;11.436;2023-09-19T01:51:10;17.20;99.90
29571;DHT22;16814;52.118;11.436;2023-09-19T01:53:44;17.20;99.90
29571;DHT22;16814;52.118;11.436;2023-09-19T01:56:37;17.20;99.90
29571;DHT22;16814;52.118;11.436;2023-09-19T01:59:13;17.20;99.90
29571;DHT22;16814;52.118;11.436;2023-09-19T02:01:39;17.20;99.90
29571;DHT22;16814;52.118;11.436;2023-09-19T02:04:05;17.20;99.90
29571;DHT22;16814;52.118;11.436;2023-09-19T02:06:33;17.20;99.90
29571;DHT22;16814;52.118;11.436;2023-09-19T02:08:59;17.20;99.90
29571;DHT22;16814;52.118;11.436;2023-09-19T02:11:26;17.20;99.90
29571;DHT22;16814;52.118;11.436;2023-09-19T02:13:51;17.20;99.90
29571;DHT22;16814;52.118;11.436;2023-09-19T02:16:21;17.20;99.90
29571;DHT22;16814;52.118;11.436;2023-09-19T02:18:50;17.20;99.90
29571;DHT22;16814;52.118;11.436;2023-09-19T02:21:16;17.20;99.90
29571;DHT22;16814;52.118;11.436;2023-09-19T02:23:43;17.20;99.90
29571;DHT22;16814;52.118;11.436;2023-09-19T02:26:09;17.20;99.90
29571;DHT22;16814;52.118;11.436;2023-09-19T02:28:34;17.20;99.90
29571;DHT22;16814;52.118;11.436;2023-09-19T02:31:02;17.20;99.90
29571;DHT22;16814;52.118;11.436;2023-09-19T02:33:30;17.10;99.90
29571;DHT22;16814;52.118;11.436;2023-09-19T02:35:58;17.10;99.90
29571;DHT22;16814;52.118;11.436;2023-09-19T02:38:25;17.10;99.90
29571;DHT22;16814;52.118;11.436;2023-09-19T02:40:52;17.10;99.90
29571;DHT22;16814;52.118;11.436;2023-09-19T02:43:18;17.10;99.90
29571;DHT22;16814;52.118;11.436;2023-09-19T02:45:45;17.10;99.90
29571;DHT22;16814;52.118;11.436;2023-09-19T02:48:12;17.10;99.90
29571;DHT22;16814;52.118;11.436;2023-09-19T02:50:38;17.10;99.90
29571;DHT22;16814;52.118;11.436;2023-09-19T02:53:05;17.60;99.90
29571;DHT22;16814;52.118;11.436;2023-09-19T02:55:32;17.00;99.90
29571;DHT22;16814;52.118;11.436;2023-09-19T02:57:58;17.00;99.90
29571;DHT22;16814;52.118;11.436;2023-09-19T03:00:24;16.90;99.90
29571;DHT22;16814;52.118;11.436;2023-09-19T03:02:52;16.80;99.90
29571;DHT22;16814;52.118;11.436;2023-09-19T03:05:18;16.90;99.90
29571;DHT22;16814;52.118;11.436;2023-09-19T03:07:44;17.10;99.90
29571;DHT22;16814;52.118;11.436;2023-09-19T03:10:12;16.90;99.90
29571;DHT22;16814;52.118;11.436;2023-09-19T03:12:40;16.80;99.90
29571;DHT22;16814;52.118;11.436;2023-09-19T03:15:07;16.80;99.90
29571;DHT22;16814;52.118;11.436;2023-09-19T03:17:34;16.80;99.90
29571;DHT22;16814;52.118;11.436;2023-09-19T03:20:01;16.70;99.90
29571;DHT22;16814;52.118;11.436;2023-09-19T03:22:28;16.70;99.90
29571;DHT22;16814;52.118;11.436;2023-09-19T03:24:54;16.60;99.90
29571;DHT22;16814;52.118;11.436;2023-09-19T03:27:21;16.60;99.90
29571;DHT22;16814;52.118;11.436;2023-09-19T03:29:47;16.60;99.90
29571;DHT22;16814;52.118;11.436;2023-09-19T03:32:13;16.60;99.90
29571;DHT22;16814;52.118;11.436;2023-09-19T03:34:39;16.50;99.90
29571;DHT22;16814;52.118;11.436;2023-09-19T03:37:09;16.50;99.90
29571;DHT22;16814;52.118;11.436;2023-09-19T03:39:35;16.50;99.90
29571;DHT22;16814;52.118;11.436;2023-09-19T03:42:01;16.40;99.90
29571;DHT22;16814;52.118;11.436;2023-09-19T03:44:29;16.40;99.90
29571;DHT22;16814;52.118;11.436;2023-09-19T03:46:55;16.40;99.90
29571;DHT22;16814;52.118;11.436;2023-09-19T03:49:22;16.30;99.90
29571;DHT22;16814;52.118;11.436;2023-09-19T03:51:47;16.30;99.90
29571;DHT22;16814;52.118;11.436;2023-09-19T03:54:13;16.30;99.90
29571;DHT22;16814;52.118;11.436;2023-09-19T03:56:38;16.20;99.90
29571;DHT22;16814;52.118;11.436;2023-09-19T03:59:07;16.20;99.90
29571;DHT22;16814;52.118;11.436;2023-09-19T04:01:34;16.20;99.90
29571;DHT22;16814;52.118;11.436;2023-09-19T04:03:59;16.20;99.90
29571;DHT22;16814;52.118;11.436;2023-09-19T04:06:33;16.20;99.90
29571;DHT22;16814;52.118;11.436;2023-09-19T04:09:00;16.10;99.90
29571;DHT22;16814;52.118;11.436;2023-09-19T04:11:29;16.10;99.90
29571;DHT22;16814;52.118;11.436;2023-09-19T04:13:56;16.10;99.90
29571;DHT22;16814;52.118;11.436;2023-09-19T04:16:23;16.10;99.90
29571;DHT22;16814;52.118;11.436;2023-09-19T04:18:49;16.10;99.90
29571;DHT22;16814;52.118;11.436;2023-09-19T04:21:15;16.10;99.90
29571;DHT22;16814;52.118;11.436;2023-09-19T04:23:41;16.10;99.90
29571;DHT22;16814;52.118;11.436;2023-09-19T04:26:06;16.00;99.90
29571;DHT22;16814;52.118;11.436;2023-09-19T04:28:32;16.00;99.90
29571;DHT22;16814;52.118;11.436;2023-09-19T04:31:02;16.00;99.90
29571;DHT22;16814;52.118;11.436;2023-09-19T04:33:28;16.00;99.90
29571;DHT22;16814;52.118;11.436;2023-09-19T04:35:53;16.00;99.90
29571;DHT22;16814;52.118;11.436;2023-09-19T04:38:19;16.00;99.90
29571;DHT22;16814;52.118;11.436;2023-09-19T04:40:45;16.00;99.90
29571;DHT22;16814;52.118;11.436;2023-09-19T04:43:14;16.00;99.90
29571;DHT22;16814;52.118;11.436;2023-09-19T04:45:41;16.00;99.90
29571;DHT22;16814;52.118;11.436;2023-09-19T04:48:06;16.00;99.90
29571;DHT22;16814;52.118;11.436;2023-09-19T04:50:34;16.00;99.90
29571;DHT22;16814;52.118;11.436;2023-09-19T04:53:00;16.00;99.90
29571;DHT22;16814;52.118;11.436;2023-09-19T04:55:26;15.90;99.90
29571;DHT22;16814;52.118;11.436;2023-09-19T04:57:52;15.90;99.90
29571;DHT22;16814;52.118;11.436;2023-09-19T05:00:21;15.90;99.90
29571;DHT22;16814;52.118;11.436;2023-09-19T05:02:54;15.90;99.90
29571;DHT22;16814;52.118;11.436;2023-09-19T05:05:20;15.90;99.90
29571;DHT22;16814;52.118;11.436;2023-09-19T05:07:47;15.90;99.90
29571;DHT22;16814;52.118;11.436;2023-09-19T05:10:14;15.90;99.90
29571;DHT22;16814;52.118;11.436;2023-09-19T05:12:40;15.90;99.90
29571;DHT22;16814;52.118;11.436;2023-09-19T05:15:07;15.90;99.90
29571;DHT22;16814;52.118;11.436;2023-09-19T05:17:33;15.90;99.90
29571;DHT22;16814;52.118;11.436;2023-09-19T05:20:00;15.80;99.90
29571;DHT22;16814;52.118;11.436;2023-09-19T05:22:56;15.90;99.90
29571;DHT22;16814;52.118;11.436;2023-09-19T05:25:24;15.90;99.90
29571;DHT22;16814;52.118;11.436;2023-09-19T05:27:53;15.90;99.90
29571;DHT22;16814;52.118;11.436;2023-09-19T05:30:18;15.80;99.90
29571;DHT22;16814;52.118;11.436;2023-09-19T05:32:45;15.90;99.90
29571;DHT22;16814;52.118;11.436;2023-09-19T05:35:14;15.90;99.90
29571;DHT22;16814;52.118;11.436;2023-09-19T05:37:39;16.00;99.90
29571;DHT22;16814;52.118;11.436;2023-09-19T05:40:05;16.00;99.90
29571;DHT22;16814;52.118;11.436;2023-09-19T05:42:36;16.00;99.90
29571;DHT22;16814;52.118;11.436;2023-09-19T05:45:02;16.00;99.90
29571;DHT22;16814;52.118;11.436;2023-09-19T05:47:27;16.00;99.90
29571;DHT22;16814;52.118;11.436;2023-09-19T05:49:53;16.00;99.90
29571;DHT22;16814;52.118;11.436;2023-09-19T05:52:19;16.00;99.90
29571;DHT22;16814;52.118;11.436;2023-09-19T05:54:45;16.00;99.90
29571;DHT22;16814;52.118;11.436;2023-09-19T05:57:10;16.00;99.90
29571;DHT22;16814;52.118;11.436;2023-09-19T05:59:37;15.90;99.90
29571;DHT22;16814;52.118;11.436;2023-09-19T06:02:05;16.00;99.90
29571;DHT22;16814;52.118;11.436;2023-09-19T06:04:31;16.00;99.90
29571;DHT22;16814;52.118;11.436;2023-09-19T06:06:57;16.00;99.90
29571;DHT22;16814;52.118;11.436;2023-09-19T06:09:24;16.00;99.90
29571;DHT22;16814;52.118;11.436;2023-09-19T06:11:52;16.00;99.90
29571;DHT22;16814;52.118;11.436;2023-09-19T06:14:17;16.00;99.90
29571;DHT22;16814;52.118;11.436;2023-09-19T06:16:43;15.90;99.90
29571;DHT22;16814;52.118;11.436;2023-09-19T06:19:09;16.20;99.90
29571;DHT22;16814;52.118;11.436;2023-09-19T06:21:36;16.00;99.90
29571;DHT22;16814;52.118;11.436;2023-09-19T06:24:02;16.00;99.90
29571;DHT22;16814;52.118;11.436;2023-09-19T06:26:28;15.90;99.90
29571;DHT22;16814;52.118;11.436;2023-09-19T06:28:56;15.90;99.90
29571;DHT22;16814;52.118;11.436;2023-09-19T06:31:22;15.90;99.90
29571;DHT22;16814;52.118;11.436;2023-09-19T06:33:52;16.00;99.90
29571;DHT22;16814;52.118;11.436;2023-09-19T06:36:17;15.90;99.90
29571;DHT22;16814;52.118;11.436;2023-09-19T06:38:46;16.00;99.90
29571;DHT22;16814;52.118;11.436;2023-09-19T06:41:12;15.90;99.90
29571;DHT22;16814;52.118;11.436;2023-09-19T06:43:39;16.00;99.90
29571;DHT22;16814;52.118;11.436;2023-09-19T06:46:06;16.00;99.90
29571;DHT22;16814;52.118;11.436;2023-09-19T06:48:33;16.00;99.90
29571;DHT22;16814;52.118;11.436;2023-09-19T06:50:59;16.20;99.90
29571;DHT22;16814;52.118;11.436;2023-09-19T06:53:31;16.10;99.90
29571;DHT22;16814;52.118;11.436;2023-09-19T06:55:58;16.20;99.90
29571;DHT22;16814;52.118;11.436;2023-09-19T06:58:23;16.20;99.90
29571;DHT22;16814;52.118;11.436;2023-09-19T07:00:49;16.30;99.90
29571;DHT22;16814;52.118;11.436;2023-09-19T07:03:18;16.60;99.90
29571;DHT22;16814;52.118;11.436;2023-09-19T07:05:47;16.90;99.90
29571;DHT22;16814;52.118;11.436;2023-09-19T07:08:13;17.40;99.90
29571;DHT22;16814;52.118;11.436;2023-09-19T07:10:42;17.50;99.90
29571;DHT22;16814;52.118;11.436;2023-09-19T07:13:15;17.50;99.90
29571;DHT22;16814;52.118;11.436;2023-09-19T07:15:42;17.30;99.90
29571;DHT22;16814;52.118;11.436;2023-09-19T07:18:13;17.20;99.90
29571;DHT22;16814;52.118;11.436;2023-09-19T07:20:40;17.60;99.90
29571;DHT22;16814;52.118;11.436;2023-09-19T07:23:17;18.00;99.90
29571;DHT22;16814;52.118;11.436;2023-09-19T07:25:43;18.50;99.90
29571;DHT22;16814;52.118;11.436;2023-09-19T07:28:09;18.80;99.90
29571;DHT22;16814;52.118;11.436;2023-09-19T07:30:36;19.00;99.90
29571;DHT22;16814;52.118;11.436;2023-09-19T07:33:07;19.10;99.90
29571;DHT22;16814;52.118;11.436;2023-09-19T07:35:32;19.20;99.90
29571;DHT22;16814;52.118;11.436;2023-09-19T07:37:59;19.20;99.90
29571;DHT22;16814;52.118;11.436;2023-09-19T07:40:27;19.20;99.90
29571;DHT22;16814;52.118;11.436;2023-09-19T07:42:55;19.50;99.90
29571;DHT22;16814;52.118;11.436;2023-09-19T07:45:20;20.00;99.90
29571;DHT22;16814;52.118;11.436;2023-09-19T07:47:47;19.80;99.90
29571;DHT22;16814;52.118;11.436;2023-09-19T07:50:17;19.70;99.90
29571;DHT22;16814;52.118;11.436;2023-09-19T07:52:44;19.70;99.90
29571;DHT22;16814;52.118;11.436;2023-09-19T07:55:10;19.60;99.90
29571;DHT22;16814;52.118;11.436;2023-09-19T07:57:49;19.60;99.90
29571;DHT22;16814;52.118;11.436;2023-09-19T08:00:16;19.50;99.90
29571;DHT22;16814;52.118;11.436;2023-09-19T08:02:42;19.40;99.90
29571;DHT22;16814;52.118;11.436;2023-09-19T08:05:09;19.40;99.90
29571;DHT22;16814;52.118;11.436;2023-09-19T08:07:36;19.50;99.90
29571;DHT22;16814;52.118;11.436;2023-09-19T08:10:05;19.50;99.90
29571;DHT22;16814;52.118;11.436;2023-09-19T08:12:39;19.50;99.90
29571;DHT22;16814;52.118;11.436;2023-09-19T08:17:40;19.70;99.90
29571;DHT22;16814;52.118;11.436;2023-09-19T08:20:08;19.70;99.90
29571;DHT22;16814;52.118;11.436;2023-09-19T08:22:51;19.80;99.90
29571;DHT22;16814;52.118;11.436;2023-09-19T08:25:20;20.00;99.90
29571;DHT22;16814;52.118;11.436;2023-09-19T08:27:47;20.30;99.90
29571;DHT22;16814;52.118;11.436;2023-09-19T08:30:19;20.50;99.90
29571;DHT22;16814;52.118;11.436;2023-09-19T08:32:56;20.60;99.90
29571;DHT22;16814;52.118;11.436;2023-09-19T08:35:23;20.60;99.90
29571;DHT22;16814;52.118;11.436;2023-09-19T08:37:49;20.40;99.90
29571;DHT22;16814;52.118;11.436;2023-09-19T08:40:14;20.40;99.90
29571;DHT22;16814;52.118;11.436;2023-09-19T08:42:54;20.30;99.90
29571;DHT22;16814;52.118;11.436;2023-09-19T08:45:21;20.20;99.90
29571;DHT22;16814;52.118;11.436;2023-09-19T08:50:53;20.00;99.90
29571;DHT22;16814;52.118;11.436;2023-09-19T08:53:30;19.90;99.90
29571;DHT22;16814;52.118;11.436;2023-09-19T08:55:59;19.90;99.90
29571;DHT22;16814;52.118;11.436;2023-09-19T08:58:34;19.80;99.90
29571;DHT22;16814;52.118;11.436;2023-09-19T09:01:02;19.90;99.90
29571;DHT22;16814;52.118;11.436;2023-09-19T09:03:33;19.90;99.90
29571;DHT22;16814;52.118;11.436;2023-09-19T09:06:00;19.80;99.90
29571;DHT22;16814;52.118;11.436;2023-09-19T09:08:27;19.70;99.90
29571;DHT22;16814;52.118;11.436;2023-09-19T09:10:53;20.30;99.90
29571;DHT22;16814;52.118;11.436;2023-09-19T09:13:19;19.50;99.90
29571;DHT22;16814;52.118;11.436;2023-09-19T09:15:47;19.40;99.90
29571;DHT22;16814;52.118;11.436;2023-09-19T09:18:14;19.40;99.90
29571;DHT22;16814;52.118;11.436;2023-09-19T09:20:40;19.30;99.90
29571;DHT22;16814;52.118;11.436;2023-09-19T09:23:06;19.40;99.90
29571;DHT22;16814;52.118;11.436;2023-09-19T09:25:54;19.50;99.90
29571;DHT22;16814;52.118;11.436;2023-09-19T09:28:26;19.50;99.90
29571;DHT22;16814;52.118;11.436;2023-09-19T09:30:54;19.50;99.90
29571;DHT22;16814;52.118;11.436;2023-09-19T09:33:20;19.60;99.90
29571;DHT22;16814;52.118;11.436;2023-09-19T09:35:53;19.80;99.90
29571;DHT22;16814;52.118;11.436;2023-09-19T09:38:43;20.00;99.90
29571;DHT22;16814;52.118;11.436;2023-09-19T09:41:09;20.10;99.90
29571;DHT22;16814;52.118;11.436;2023-09-19T09:43:36;20.00;99.90
29571;DHT22;16814;52.118;11.436;2023-09-19T09:46:18;19.90;99.90
29571;DHT22;16814;52.118;11.436;2023-09-19T09:49:06;19.80;99.90
29571;DHT22;16814;52.118;11.436;2023-09-19T09:52:04;19.80;99.90
29571;DHT22;16814;52.118;11.436;2023-09-19T09:54:35;19.80;99.90
29571;DHT22;16814;52.118;11.436;2023-09-19T09:57:06;19.70;99.90
29571;DHT22;16814;52.118;11.436;2023-09-19T09:59:53;19.70;99.90
29571;DHT22;16814;52.118;11.436;2023-09-19T10:02:35;19.80;99.90
29571;DHT22;16814;52.118;11.436;2023-09-19T10:05:13;19.70;99.90
29571;DHT22;16814;52.118;11.436;2023-09-19T10:07:48;19.70;99.90
29571;DHT22;16814;52.118;11.436;2023-09-19T10:10:35;19.70;99.90
29571;DHT22;16814;52.118;11.436;2023-09-19T10:13:08;20.00;99.90
29571;DHT22;16814;52.118;11.436;2023-09-19T10:15:37;19.70;99.90
29571;DHT22;16814;52.118;11.436;2023-09-19T10:18:10;19.90;99.90
29571;DHT22;16814;52.118;11.436;2023-09-19T10:20:44;20.00;99.90
29571;DHT22;16814;52.118;11.436;2023-09-19T10:23:11;20.10;99.90
29571;DHT22;16814;52.118;11.436;2023-09-19T10:25:43;20.00;99.90
29571;DHT22;16814;52.118;11.436;2023-09-19T10:28:14;20.10;99.90
29571;DHT22;16814;52.118;11.436;2023-09-19T10:30:44;20.10;99.90
29571;DHT22;16814;52.118;11.436;2023-09-19T10:33:25;20.10;99.90
29571;DHT22;16814;52.118;11.436;2023-09-19T10:35:51;20.00;99.90
29571;DHT22;16814;52.118;11.436;2023-09-19T10:38:18;19.90;99.90
29571;DHT22;16814;52.118;11.436;2023-09-19T10:40:57;19.80;99.90
29571;DHT22;16814;52.118;11.436;2023-09-19T10:43:32;19.80;99.90
29571;DHT22;16814;52.118;11.436;2023-09-19T10:46:02;19.80;99.90
29571;DHT22;16814;52.118;11.436;2023-09-19T10:48:31;19.80;99.90
29571;DHT22;16814;52.118;11.436;2023-09-19T10:56:36;19.90;99.90
29571;DHT22;16814;52.118;11.436;2023-09-19T10:59:16;19.90;99.90
29571;DHT22;16814;52.118;11.436;2023-09-19T11:01:51;19.90;99.90
29571;DHT22;16814;52.118;11.436;2023-09-19T11:04:29;20.00;99.90
29571;DHT22;16814;52.118;11.436;2023-09-19T11:07:14;20.00;99.90
29571;DHT22;16814;52.118;11.436;2023-09-19T11:09:54;20.00;99.90
29571;DHT22;16814;52.118;11.436;2023-09-19T11:14:59;19.90;99.90
29571;DHT22;16814;52.118;11.436;2023-09-19T11:17:53;19.80;99.90
29571;DHT22;16814;52.118;11.436;2023-09-19T11:20:21;19.80;99.90
29571;DHT22;16814;52.118;11.436;2023-09-19T11:23:19;19.80;99.90
29571;DHT22;16814;52.118;11.436;2023-09-19T11:25:48;19.80;99.90
29571;DHT22;16814;52.118;11.436;2023-09-19T11:30:48;19.70;99.90
29571;DHT22;16814;52.118;11.436;2023-09-19T11:33:31;19.60;99.90
29571;DHT22;16814;52.118;11.436;2023-09-19T11:36:11;19.60;99.90
29571;DHT22;16814;52.118;11.436;2023-09-19T11:38:56;19.70;99.90
29571;DHT22;16814;52.118;11.436;2023-09-19T11:46:27;19.60;99.90
29571;DHT22;16814;52.118;11.436;2023-09-19T11:48:54;19.70;99.90
29571;DHT22;16814;52.118;11.436;2023-09-19T11:51:24;19.60;99.90
29571;DHT22;16814;52.118;11.436;2023-09-19T11:53:57;19.70;99.90
29571;DHT22;16814;52.118;11.436;2023-09-19T11:56:26;19.80;99.90
29571;DHT22;16814;52.118;11.436;2023-09-19T11:58:55;19.70;99.90
29571;DHT22;16814;52.118;11.436;2023-09-19T12:01:32;19.80;99.90
29571;DHT22;16814;52.118;11.436;2023-09-19T12:04:00;19.80;99.90
29571;DHT22;16814;52.118;11.436;2023-09-19T12:06:28;19.80;99.90
29571;DHT22;16814;52.118;11.436;2023-09-19T12:08:55;19.90;99.90
29571;DHT22;16814;52.118;11.436;2023-09-19T12:11:23;19.90;99.90
29571;DHT22;16814;52.118;11.436;2023-09-19T12:13:49;19.90;99.90
29571;DHT22;16814;52.118;11.436;2023-09-19T12:16:19;19.90;99.90
29571;DHT22;16814;52.118;11.436;2023-09-19T12:18:51;19.90;99.90
29571;DHT22;16814;52.118;11.436;2023-09-19T12:21:31;19.90;99.90
29571;DHT22;16814;52.118;11.436;2023-09-19T12:26:48;20.00;99.90
29571;DHT22;16814;52.118;11.436;2023-09-19T12:29:21;20.00;98.80
29571;DHT22;16814;52.118;11.436;2023-09-19T12:31:54;20.00;98.60
29571;DHT22;16814;52.118;11.436;2023-09-19T12:34:41;20.00;99.10
29571;DHT22;16814;52.118;11.436;2023-09-19T12:37:13;19.90;99.10
29571;DHT22;16814;52.118;11.436;2023-09-19T12:40:04;20.00;99.50
29571;DHT22;16814;52.118;11.436;2023-09-19T12:42:43;20.10;99.90
29571;DHT22;16814;52.118;11.436;2023-09-19T12:45:16;20.10;98.20
29571;DHT22;16814;52.118;11.436;2023-09-19T12:48:18;20.10;98.30
29571;DHT22;16814;52.118;11.436;2023-09-19T12:51:00;20.00;98.10
29571;DHT22;16814;52.118;11.436;2023-09-19T12:53:33;20.00;99.20
29571;DHT22;16814;52.118;11.436;2023-09-19T12:56:01;20.00;99.00
29571;DHT22;16814;52.118;11.436;2023-09-19T12:58:28;20.10;99.40
29571;DHT22;16814;52.118;11.436;2023-09-19T13:00:55;20.10;99.40
29571;DHT22;16814;52.118;11.436;2023-09-19T13:06:02;20.10;99.10
29571;DHT22;16814;52.118;11.436;2023-09-19T13:08:41;20.00;99.00
29571;DHT22;16814;52.118;11.436;2023-09-19T13:11:36;20.00;99.40
29571;DHT22;16814;52.118;11.436;2023-09-19T13:14:23;20.00;99.40
29571;DHT22;16814;52.118;11.436;2023-09-19T13:17:05;20.00;99.40
29571;DHT22;16814;52.118;11.436;2023-09-19T13:20:04;20.10;98.90
29571;DHT22;16814;52.118;11.436;2023-09-19T13:22:45;20.10;98.50
29571;DHT22;16814;52.118;11.436;2023-09-19T13:25:16;20.10;98.10
29571;DHT22;16814;52.118;11.436;2023-09-19T13:27:52;20.20;98.00
29571;DHT22;16814;52.118;11.436;2023-09-19T13:30:29;20.10;98.20
29571;DHT22;16814;52.118;11.436;2023-09-19T13:33:12;20.00;98.80
29571;DHT22;16814;52.118;11.436;2023-09-19T13:38:20;20.10;98.20
29571;DHT22;16814;52.118;11.436;2023-09-19T13:40:48;20.20;98.30
29571;DHT22;16814;52.118;11.436;2023-09-19T13:43:13;20.20;98.30
29571;DHT22;16814;52.118;11.436;2023-09-19T13:45:40;20.10;98.30
29571;DHT22;16814;52.118;11.436;2023-09-19T13:48:08;20.20;98.60
29571;DHT22;16814;52.118;11.436;2023-09-19T13:50:36;20.30;98.80
29571;DHT22;16814;52.118;11.436;2023-09-19T13:53:02;20.30;98.20
29571;DHT22;16814;52.118;11.436;2023-09-19T13:55:28;20.40;98.30
29571;DHT22;16814;52.118;11.436;2023-09-19T13:57:54;20.50;98.80
29571;DHT22;16814;52.118;11.436;2023-09-19T14:00:21;20.60;98.20
29571;DHT22;16814;52.118;11.436;2023-09-19T14:02:48;20.60;97.70
29571;DHT22;16814;52.118;11.436;2023-09-19T14:05:15;20.70;97.80
29571;DHT22;16814;52.118;11.436;2023-09-19T14:07:42;20.60;97.70
29571;DHT22;16814;52.118;11.436;2023-09-19T14:10:08;20.60;97.90
29571;DHT22;16814;52.118;11.436;2023-09-19T14:12:36;20.60;97.60
29571;DHT22;16814;52.118;11.436;2023-09-19T14:15:01;20.50;97.60
29571;DHT22;16814;52.118;11.436;2023-09-19T14:17:27;20.50;97.50
29571;DHT22;16814;52.118;11.436;2023-09-19T14:19:53;20.40;97.30
29571;DHT22;16814;52.118;11.436;2023-09-19T14:22:19;20.30;97.40
29571;DHT22;16814;52.118;11.436;2023-09-19T14:24:45;20.20;97.40
29571;DHT22;16814;52.118;11.436;2023-09-19T14:27:10;20.20;97.70
29571;DHT22;16814;52.118;11.436;2023-09-19T14:29:36;20.10;98.00
29571;DHT22;16814;52.118;11.436;2023-09-19T14:32:02;20.10;97.80
29571;DHT22;16814;52.118;11.436;2023-09-19T14:34:28;20.10;97.80
29571;DHT22;16814;52.118;11.436;2023-09-19T14:36:53;20.20;97.60
29571;DHT22;16814;52.118;11.436;2023-09-19T14:39:22;20.10;97.90
29571;DHT22;16814;52.118;11.436;2023-09-19T14:41:48;20.20;97.80
29571;DHT22;16814;52.118;11.436;2023-09-19T14:44:14;20.20;98.20
29571;DHT22;16814;52.118;11.436;2023-09-19T14:46:41;20.20;98.10
29571;DHT22;16814;52.118;11.436;2023-09-19T14:49:08;20.20;97.80
29571;DHT22;16814;52.118;11.436;2023-09-19T14:51:35;20.10;97.60
29571;DHT22;16814;52.118;11.436;2023-09-19T14:54:01;20.10;97.80
29571;DHT22;16814;52.118;11.436;2023-09-19T14:56:27;20.10;98.40
29571;DHT22;16814;52.118;11.436;2023-09-19T14:58:55;20.20;97.70
29571;DHT22;16814;52.118;11.436;2023-09-19T15:01:21;20.30;97.30
29571;DHT22;16814;52.118;11.436;2023-09-19T15:03:47;20.30;97.20
29571;DHT22;16814;52.118;11.436;2023-09-19T15:06:15;20.30;97.20
29571;DHT22;16814;52.118;11.436;2023-09-19T15:08:43;20.40;97.30
29571;DHT22;16814;52.118;11.436;2023-09-19T15:11:18;20.50;97.50
29571;DHT22;16814;52.118;11.436;2023-09-19T15:13:46;20.60;96.90
29571;DHT22;16814;52.118;11.436;2023-09-19T15:16:12;20.50;97.00
29571;DHT22;16814;52.118;11.436;2023-09-19T15:18:39;20.60;96.70
29571;DHT22;16814;52.118;11.436;2023-09-19T15:21:07;20.60;96.70
29571;DHT22;16814;52.118;11.436;2023-09-19T15:23:34;20.50;97.10
29571;DHT22;16814;52.118;11.436;2023-09-19T15:26:04;20.60;96.80
29571;DHT22;16814;52.118;11.436;2023-09-19T15:28:30;20.50;96.70
29571;DHT22;16814;52.118;11.436;2023-09-19T15:31:08;20.50;96.90
29571;DHT22;16814;52.118;11.436;2023-09-19T15:33:35;20.40;97.00
29571;DHT22;16814;52.118;11.436;2023-09-19T15:36:05;20.40;96.80
29571;DHT22;16814;52.118;11.436;2023-09-19T15:38:32;20.40;96.80
29571;DHT22;16814;52.118;11.436;2023-09-19T15:41:00;20.50;97.30
29571;DHT22;16814;52.118;11.436;2023-09-19T15:43:26;20.50;97.50
29571;DHT22;16814;52.118;11.436;2023-09-19T15:45:51;20.50;97.10
29571;DHT22;16814;52.118;11.436;2023-09-19T15:48:17;20.50;97.20
29571;DHT22;16814;52.118;11.436;2023-09-19T15:50:44;20.90;97.20
29571;DHT22;16814;52.118;11.436;2023-09-19T15:53:10;20.50;97.20
29571;DHT22;16814;52.118;11.436;2023-09-19T15:55:39;20.50;97.20
29571;DHT22;16814;52.118;11.436;2023-09-19T15:58:05;20.50;97.30
29571;DHT22;16814;52.118;11.436;2023-09-19T16:00:34;20.40;97.50
29571;DHT22;16814;52.118;11.436;2023-09-19T16:03:04;20.40;97.60
29571;DHT22;16814;52.118;11.436;2023-09-19T16:05:37;20.50;98.10
29571;DHT22;16814;52.118;11.436;2023-09-19T16:08:05;20.50;98.10
29571;DHT22;16814;52.118;11.436;2023-09-19T16:10:35;20.50;98.20
29571;DHT22;16814;52.118;11.436;2023-09-19T16:13:02;20.60;97.90